Time;durP1;ratioP1;P1;durP2;ratioP2;P2;SDS_P1;SDS_P2;PMS_P1;PMS_P2;Temp;Humidity;BMP_temperature;BMP_pressure;BME280_temperature;BME280_humidity;BME280_pressure;Samples;Min_cycle;Max_cycle;Signal;HPM_P1;HPM_P2
2021/03/21 00:01:07;;;;;;;14.87;12.57;;;;;;;-1.23;53.61;100605.15;123447;1105;104280;-82
2021/03/21 00:03:33;;;;;;;19.30;15.15;;;;;;;-1.20;53.62;100596.51;123290;1105;104274;-82
2021/03/21 00:06:00;;;;;;;18.17;13.93;;;;;;;-1.17;54.00;100599.22;123382;1105;104240;-81
2021/03/21 00:08:32;;;;;;;18.17;14.17;;;;;;;-1.16;53.78;100603.57;123396;1106;107642;-84
2021/03/21 00:11:08;;;;;;;16.20;12.03;;;;;;;-1.24;54.19;100605.12;123322;1105;104626;-82
2021/03/21 00:13:35;;;;;;;21.70;14.58;;;;;;;-1.21;54.48;100602.60;123152;1105;104230;-84
2021/03/21 00:16:02;;;;;;;20.17;16.02;;;;;;;-1.20;54.21;100584.34;123092;1105;104192;-79
2021/03/21 00:18:32;;;;;;;15.77;13.13;;;;;;;-1.19;54.01;100585.22;123152;1105;104258;-79
2021/03/21 00:20:59;;;;;;;18.47;15.00;;;;;;;-1.21;54.93;100579.95;123094;1105;104248;-80
2021/03/21 00:23:26;;;;;;;20.17;14.47;;;;;;;-1.22;54.61;100572.08;122932;1105;104780;-79
2021/03/21 00:25:52;;;;;;;19.87;14.60;;;;;;;-1.23;54.60;100565.09;122858;1105;104181;-83
2021/03/21 00:28:22;;;;;;;21.47;15.33;;;;;;;-1.21;54.90;100563.41;123506;1105;104354;-82
2021/03/21 00:31:07;;;;;;;16.75;13.03;;;;;;;-1.20;54.35;100552.98;123529;1105;104304;-80
2021/03/21 00:33:44;;;;;;;20.90;14.60;;;;;;;-1.21;54.76;100553.83;123433;1105;104254;-81
2021/03/21 00:36:25;;;;;;;21.17;13.30;;;;;;;-1.21;54.65;100548.59;122881;1109;104597;-79
2021/03/21 00:39:06;;;;;;;21.55;15.28;;;;;;;-1.24;54.25;100539.79;122907;1109;104399;-81
2021/03/21 00:41:48;;;;;;;14.47;10.97;;;;;;;-1.23;54.71;100537.21;122960;1109;104444;-87
2021/03/21 00:44:14;;;;;;;19.15;14.90;;;;;;;-1.21;55.27;100526.82;123131;1109;104531;-81
2021/03/21 00:46:40;;;;;;;15.70;12.67;;;;;;;-1.20;54.34;100526.85;123149;1105;104248;-79
2021/03/21 00:49:07;;;;;;;18.30;15.38;;;;;;;-1.16;54.48;100519.08;123436;1105;104242;-80
2021/03/21 00:51:34;;;;;;;18.63;15.17;;;;;;;-1.14;54.61;100509.55;123306;1105;104379;-84
2021/03/21 00:54:00;;;;;;;20.43;14.58;;;;;;;-1.15;54.49;100508.66;123255;1105;104645;-81
2021/03/21 00:56:32;;;;;;;17.45;13.68;;;;;;;-1.19;54.40;100507.72;123135;1105;104200;-80
2021/03/21 00:58:59;;;;;;;22.77;16.07;;;;;;;-1.17;54.72;100502.52;123388;1105;104163;-83
2021/03/21 01:01:30;;;;;;;15.40;11.80;;;;;;;-1.20;54.91;100499.81;123346;1105;104725;-81
2021/03/21 01:03:58;;;;;;;23.10;15.13;;;;;;;-1.13;54.61;100493.00;123321;1105;104292;-82
2021/03/21 01:06:25;;;;;;;17.05;14.75;;;;;;;-1.14;55.04;100481.67;123382;1106;104290;-81
2021/03/21 01:08:58;;;;;;;17.73;12.60;;;;;;;-1.10;54.61;100477.41;123386;1105;104421;-81
2021/03/21 01:11:30;;;;;;;11.83;10.63;;;;;;;-1.15;54.71;100468.58;123389;1105;104290;-82
2021/03/21 01:13:58;;;;;;;16.42;12.25;;;;;;;-1.17;54.88;100463.33;123341;1106;104309;-81
2021/03/21 01:16:29;;;;;;;19.23;14.75;;;;;;;-1.12;54.87;100460.80;123381;1106;104226;-81
2021/03/21 01:18:57;;;;;;;14.07;12.63;;;;;;;-1.09;55.25;100458.28;123372;1105;104290;-83
2021/03/21 01:21:24;;;;;;;16.43;13.60;;;;;;;-1.09;54.85;100447.83;123367;1105;104950;-87
2021/03/21 01:23:51;;;;;;;18.63;12.90;;;;;;;-1.15;54.53;100445.94;123170;1105;104335;-81
2021/03/21 01:26:20;;;;;;;13.93;10.40;;;;;;;-1.12;54.89;100438.18;123436;1105;104339;-82
2021/03/21 01:28:49;;;;;;;17.13;12.60;;;;;;;-1.13;55.26;100430.28;123597;1105;104514;-79
2021/03/21 01:31:21;;;;;;;19.03;13.27;;;;;;;-1.13;55.03;100425.05;123400;1105;104294;-81
2021/03/21 01:33:48;;;;;;;16.65;12.40;;;;;;;-1.18;55.24;100423.23;123396;1105;104316;-81
2021/03/21 01:36:23;;;;;;;17.75;13.60;;;;;;;-1.14;55.43;100412.86;123381;1105;104360;-81
2021/03/21 01:38:50;;;;;;;17.17;12.67;;;;;;;-1.16;55.18;100409.31;123217;1106;104233;-83
2021/03/21 01:41:23;;;;;;;15.08;11.60;;;;;;;-1.14;55.74;100394.57;123148;1105;104383;-80
2021/03/21 01:43:50;;;;;;;14.65;12.10;;;;;;;-1.20;55.08;100395.30;123432;1105;104345;-81
2021/03/21 01:46:27;;;;;;;11.37;10.30;;;;;;;-1.22;55.70;100387.43;123270;1105;104390;-82
2021/03/21 01:48:56;;;;;;;12.47;11.03;;;;;;;-1.27;55.43;100382.97;123594;1106;104434;-82
2021/03/21 01:51:39;;;;;;;14.53;12.67;;;;;;;-1.32;55.55;100372.43;123361;1109;104848;-82
2021/03/21 01:54:11;;;;;;;10.85;9.53;;;;;;;-1.34;55.89;100363.66;123289;1109;104243;-82
2021/03/21 01:56:39;;;;;;;20.10;11.57;;;;;;;-1.35;56.20;100364.50;123481;1105;104370;-83
2021/03/21 01:59:25;;;;;;;13.47;10.80;;;;;;;-1.35;55.84;100357.57;123238;1105;104453;-85
2021/03/21 02:01:53;;;;;;;17.92;12.25;;;;;;;-1.27;56.08;100357.70;123171;1106;105018;-81
2021/03/21 02:04:21;;;;;;;17.37;12.65;;;;;;;-1.25;55.88;100353.41;123514;1105;104392;-81
2021/03/21 02:07:14;;;;;;;15.17;12.30;;;;;;;-1.22;55.76;100353.46;123409;1105;104502;-83
2021/03/21 02:09:41;;;;;;;10.03;9.03;;;;;;;-1.26;56.47;100341.19;123444;1105;105077;-81
2021/03/21 02:13:03;;;;;;;12.87;11.37;;;;;;;-1.24;55.72;100344.73;123212;1105;104295;-81
2021/03/21 02:15:52;;;;;;;14.10;11.23;;;;;;;-1.27;56.03;100338.55;123225;1109;104412;-81
2021/03/21 02:18:34;;;;;;;11.13;9.67;;;;;;;-1.23;55.96;100329.92;123095;1108;104634;-82
2021/03/21 02:21:45;;;;;;;10.63;9.23;;;;;;;-1.22;56.16;100323.84;123326;1105;105108;-86
2021/03/21 02:24:59;;;;;;;11.18;9.03;;;;;;;-1.24;56.38;100313.38;123424;1105;104277;-81
2021/03/21 02:27:50;;;;;;;11.03;8.80;;;;;;;-1.29;56.39;100314.11;123295;1105;104312;-82
2021/03/21 02:30:41;;;;;;;12.65;10.70;;;;;;;-1.32;56.71;100291.44;123544;1105;104297;-82
2021/03/21 02:33:19;;;;;;;13.78;12.33;;;;;;;-1.27;56.86;100296.74;123446;1105;105169;-81
2021/03/21 02:35:51;;;;;;;13.28;9.88;;;;;;;-1.27;57.51;100279.32;123461;1105;104373;-81
2021/03/21 02:38:29;;;;;;;15.03;12.35;;;;;;;-1.26;57.24;100277.61;123478;1105;104226;-82
2021/03/21 02:41:10;;;;;;;12.83;11.30;;;;;;;-1.24;56.85;100273.28;123494;1106;104339;-80
2021/03/21 02:43:43;;;;;;;13.60;10.45;;;;;;;-1.22;57.11;100263.75;123553;1105;104258;-82
2021/03/21 02:46:47;;;;;;;11.15;9.40;;;;;;;-1.21;57.46;100261.16;123242;1107;105174;-81
2021/03/21 02:49:33;;;;;;;15.50;10.80;;;;;;;-1.19;56.90;100246.41;122934;1112;104354;-81
2021/03/21 02:52:04;;;;;;;17.77;11.33;;;;;;;-1.15;57.57;100244.72;122974;1112;104252;-80
2021/03/21 02:54:54;;;;;;;13.40;11.00;;;;;;;-1.10;56.70;100236.98;122673;1112;104364;-82
2021/03/21 02:57:26;;;;;;;13.55;8.88;;;;;;;-1.11;57.12;100230.85;122681;1112;104432;-80
2021/03/21 02:59:55;;;;;;;10.58;9.00;;;;;;;-1.12;56.99;100230.83;122881;1112;104358;-84
2021/03/21 03:02:31;;;;;;;12.40;9.90;;;;;;;-1.07;57.34;100224.83;122940;1112;104386;-80
2021/03/21 03:05:22;;;;;;;10.07;9.07;;;;;;;-1.04;57.18;100227.52;122902;1111;104426;-80
2021/03/21 03:07:56;;;;;;;10.35;8.73;;;;;;;-1.11;57.54;100215.17;122920;1111;104964;-80
2021/03/21 03:10:48;;;;;;;11.63;9.70;;;;;;;-1.10;57.62;100216.07;122936;1111;104352;-81
2021/03/21 03:13:40;;;;;;;11.12;9.78;;;;;;;-1.11;57.69;100209.94;122931;1112;104251;-80
2021/03/21 03:16:25;;;;;;;9.50;8.60;;;;;;;-1.13;57.94;100206.44;122903;1112;104444;-81
2021/03/21 03:19:25;;;;;;;9.85;8.93;;;;;;;-1.07;57.57;100203.91;122911;1112;104418;-83
2021/03/21 03:22:14;;;;;;;9.65;8.75;;;;;;;-1.07;58.13;100195.20;122922;1112;104802;-81
2021/03/21 03:24:46;;;;;;;10.73;9.63;;;;;;;-1.08;57.93;100180.38;123112;1109;104300;-81
2021/03/21 03:27:19;;;;;;;11.30;9.78;;;;;;;-1.07;58.24;100182.14;123222;1105;104336;-81
2021/03/21 03:30:09;;;;;;;9.17;8.30;;;;;;;-1.06;58.09;100169.09;123335;1105;104373;-82
2021/03/21 03:32:36;;;;;;;12.07;10.87;;;;;;;-1.06;57.86;100181.30;123673;1105;105621;-85
2021/03/21 03:35:09;;;;;;;9.63;8.70;;;;;;;-1.12;58.55;100169.01;123484;1105;104220;-82
2021/03/21 03:37:36;;;;;;;9.73;8.93;;;;;;;-1.08;58.81;100167.30;123258;1106;104294;-89
2021/03/21 03:40:08;;;;;;;12.73;9.55;;;;;;;-1.02;58.15;100159.58;123379;1105;104339;-83
2021/03/21 03:42:40;;;;;;;13.45;11.53;;;;;;;-0.98;58.26;100147.45;123368;1105;104217;-80
2021/03/21 03:45:13;;;;;;;12.10;8.83;;;;;;;-0.98;58.24;100143.09;123233;1105;104328;-80
2021/03/21 03:48:06;;;;;;;9.70;7.70;;;;;;;-0.94;58.16;100137.05;123472;1105;104296;-80
2021/03/21 03:51:07;;;;;;;12.15;9.20;;;;;;;-0.93;58.50;100140.56;123087;1105;104684;-80
2021/03/21 03:53:52;;;;;;;10.95;9.93;;;;;;;-0.91;58.24;100126.64;122796;1105;104347;-81
2021/03/21 03:56:39;;;;;;;9.30;8.30;;;;;;;-0.88;58.79;100133.65;122698;1106;104335;-83
2021/03/21 03:59:33;;;;;;;10.30;9.30;;;;;;;-0.89;58.79;100118.84;122699;1105;104813;-81
2021/03/21 04:02:19;;;;;;;10.80;9.17;;;;;;;-0.84;58.67;100109.31;122467;1109;104759;-81
2021/03/21 04:05:01;;;;;;;8.08;7.30;;;;;;;-0.83;58.20;100116.30;122542;1109;104370;-81
2021/03/21 04:07:34;;;;;;;10.07;9.07;;;;;;;-0.88;58.32;100103.18;122487;1108;104494;-81
2021/03/21 04:10:08;;;;;;;10.65;9.48;;;;;;;-0.91;58.87;100105.72;122504;1109;104429;-81
2021/03/21 04:12:43;;;;;;;8.78;7.87;;;;;;;-0.90;58.67;100099.65;122759;1109;104435;-81
2021/03/21 04:15:18;;;;;;;9.57;8.60;;;;;;;-0.85;58.42;100097.13;122603;1108;104350;-82
2021/03/21 04:18:15;;;;;;;13.43;10.68;;;;;;;-0.82;58.28;100096.29;122853;1108;105297;-81
2021/03/21 04:20:49;;;;;;;14.87;9.68;;;;;;;-0.77;58.17;100085.03;122632;1109;104291;-86
2021/03/21 04:23:32;;;;;;;12.50;9.70;;;;;;;-0.77;58.36;100084.14;122784;1109;104409;-80
2021/03/21 04:26:07;;;;;;;12.45;9.40;;;;;;;-0.75;58.16;100079.83;123727;1108;104235;-84
2021/03/21 04:28:44;;;;;;;9.90;8.83;;;;;;;-0.72;57.94;100075.53;123915;1109;104421;-82
2021/03/21 04:31:15;;;;;;;11.63;9.27;;;;;;;-0.74;58.00;100068.52;124116;1109;104174;-85
2021/03/21 04:33:47;;;;;;;14.70;10.30;;;;;;;-0.79;58.25;100063.20;124062;1109;104437;-80
2021/03/21 04:36:21;;;;;;;12.33;11.12;;;;;;;-0.72;58.30;100059.84;123937;1108;104689;-81
2021/03/21 04:39:05;;;;;;;10.77;9.67;;;;;;;-0.68;58.24;100065.97;123240;1108;104516;-84
2021/03/21 04:41:43;;;;;;;13.22;10.75;;;;;;;-0.68;57.92;100058.12;123403;1105;104229;-80
2021/03/21 04:44:51;;;;;;;12.37;9.03;;;;;;;-0.69;57.89;100056.39;123417;1105;104374;-80
2021/03/21 04:47:25;;;;;;;10.93;9.50;;;;;;;-0.66;57.94;100045.95;123322;1105;104760;-80
2021/03/21 04:49:59;;;;;;;11.38;10.08;;;;;;;-0.69;57.92;100056.39;123591;1105;104258;-79
2021/03/21 04:56:27;;;;;;;11.30;10.05;;;;;;;-0.58;57.85;100036.47;123517;1105;104612;-79
2021/03/21 04:59:18;;;;;;;9.90;7.53;;;;;;;-0.61;57.82;100032.93;123243;1109;104329;-79
2021/03/21 05:02:09;;;;;;;8.93;7.63;;;;;;;-0.65;57.79;100029.42;123249;1109;104284;-80
2021/03/21 05:04:40;;;;;;;11.87;9.57;;;;;;;-0.69;58.11;100032.85;123209;1109;104383;-81
2021/03/21 05:07:30;;;;;;;11.40;9.63;;;;;;;-0.64;58.31;100027.67;123150;1109;104422;-80
2021/03/21 05:10:09;;;;;;;9.20;8.28;;;;;;;-0.56;58.25;100016.46;123097;1109;104687;-79
2021/03/21 05:12:48;;;;;;;13.00;9.60;;;;;;;-0.58;57.96;100012.94;123282;1109;104258;-81
2021/03/21 05:15:25;;;;;;;16.02;9.85;;;;;;;-0.62;58.18;100018.12;122957;1109;104390;-81
2021/03/21 05:18:29;;;;;;;10.28;8.75;;;;;;;-0.55;58.09;100010.37;123203;1109;104360;-80
2021/03/21 05:21:01;;;;;;;9.43;7.83;;;;;;;-0.52;57.50;100013.02;123187;1109;104320;-81
2021/03/21 05:24:03;;;;;;;11.30;10.23;;;;;;;-0.46;56.99;100006.11;123387;1109;104399;-81
2021/03/21 05:26:47;;;;;;;12.97;8.30;;;;;;;-0.49;57.45;100008.67;123239;1109;104380;-79
2021/03/21 05:29:45;;;;;;;10.10;9.20;;;;;;;-0.47;57.24;99999.98;123149;1109;104444;-80
2021/03/21 05:32:14;;;;;;;9.43;8.63;;;;;;;-0.49;56.80;99999.11;123120;1108;104993;-80
2021/03/21 05:34:42;;;;;;;10.13;8.90;;;;;;;-0.46;56.68;99995.65;123402;1109;104354;-79
2021/03/21 05:37:14;;;;;;;10.10;9.13;;;;;;;-0.48;56.52;99994.73;123316;1105;104374;-81
2021/03/21 05:40:02;;;;;;;9.93;8.60;;;;;;;-0.47;57.24;99993.89;123475;1105;104323;-80
2021/03/21 05:42:57;;;;;;;11.78;10.03;;;;;;;-0.43;57.03;99990.45;123001;1106;104513;-80
2021/03/21 05:45:45;;;;;;;10.03;8.27;;;;;;;-0.37;56.57;99985.30;122770;1105;104226;-79
2021/03/21 05:48:50;;;;;;;9.97;8.93;;;;;;;-0.35;56.50;99979.22;122853;1105;104306;-79
2021/03/21 05:51:27;;;;;;;10.48;9.08;;;;;;;-0.27;55.92;99981.89;122585;1105;104336;-79
2021/03/21 05:54:07;;;;;;;9.47;8.67;;;;;;;-0.26;55.85;99980.17;122612;1105;104332;-79
2021/03/21 05:57:04;;;;;;;9.93;9.03;;;;;;;-0.23;56.10;99972.34;122812;1105;104264;-80
2021/03/21 05:59:52;;;;;;;10.13;8.60;;;;;;;-0.22;56.02;99974.98;122764;1105;104236;-83
2021/03/21 06:02:37;;;;;;;11.27;9.97;;;;;;;-0.21;55.51;99962.79;122632;1105;104377;-80
2021/03/21 06:05:30;;;;;;;10.38;9.38;;;;;;;-0.22;56.56;99964.51;122623;1105;104690;-80
2021/03/21 06:08:18;;;;;;;12.98;10.05;;;;;;;-0.23;56.02;99962.74;122877;1105;104371;-82
2021/03/21 06:11:03;;;;;;;12.83;9.17;;;;;;;-0.25;55.41;99953.16;122565;1105;104302;-80
2021/03/21 06:14:06;;;;;;;12.67;10.53;;;;;;;-0.25;55.52;99947.92;122600;1105;104938;-79
2021/03/21 06:16:57;;;;;;;12.70;9.87;;;;;;;-0.21;56.27;99945.34;122561;1105;104370;-78
2021/03/21 06:19:54;;;;;;;9.53;8.60;;;;;;;-0.16;55.92;99942.78;122594;1105;104358;-79
2021/03/21 06:22:56;;;;;;;11.37;10.13;;;;;;;-0.21;55.78;99937.48;122695;1105;104345;-80
2021/03/21 06:25:44;;;;;;;12.28;9.85;;;;;;;-0.17;55.90;99943.63;122654;1105;105152;-84
2021/03/21 06:28:32;;;;;;;13.48;10.85;;;;;;;-0.13;55.41;99934.95;122738;1105;104259;-80
2021/03/21 06:31:24;;;;;;;10.43;8.83;;;;;;;-0.12;56.14;99917.49;122634;1105;104300;-80
2021/03/21 06:34:11;;;;;;;8.87;8.00;;;;;;;-0.07;55.69;99916.66;122726;1105;104419;-79
2021/03/21 06:36:47;;;;;;;11.33;10.23;;;;;;;-0.08;56.34;99919.27;122807;1105;104389;-87
2021/03/21 06:39:50;;;;;;;11.00;9.90;;;;;;;-0.04;56.11;99914.09;122762;1105;104594;-82
2021/03/21 06:42:58;;;;;;;12.47;10.03;;;;;;;0.01;56.62;99916.73;122769;1105;104491;-78
2021/03/21 06:45:48;;;;;;;13.98;10.65;;;;;;;0.07;55.99;99903.71;122582;1105;104431;-78
2021/03/21 06:48:41;;;;;;;12.50;9.00;;;;;;;0.06;57.07;99901.95;122825;1105;104312;-78
2021/03/21 06:51:26;;;;;;;19.15;10.95;;;;;;;0.08;57.05;99900.23;123004;1105;104343;-78
2021/03/21 06:54:01;;;;;;;13.67;10.63;;;;;;;0.15;56.94;99906.40;123212;1105;104293;-78
2021/03/21 06:56:45;;;;;;;11.78;10.38;;;;;;;0.16;57.33;99895.94;123196;1105;104249;-77
2021/03/21 06:59:51;;;;;;;13.30;11.90;;;;;;;0.25;56.96;99902.09;123290;1105;104249;-78
2021/03/21 07:02:33;;;;;;;19.73;10.27;;;;;;;0.31;57.35;99896.92;123352;1105;104206;-80
2021/03/21 07:05:09;;;;;;;12.90;10.37;;;;;;;0.30;57.48;99893.41;123391;1105;104626;-78
2021/03/21 07:07:44;;;;;;;17.42;12.70;;;;;;;0.26;58.48;99893.38;123383;1105;104612;-87
2021/03/21 07:10:49;;;;;;;17.87;11.50;;;;;;;0.23;58.13;99893.38;123336;1105;104253;-78
2021/03/21 07:13:41;;;;;;;12.20;10.87;;;;;;;0.19;59.31;99887.22;123218;1105;104283;-77
2021/03/21 07:16:45;;;;;;;13.47;11.83;;;;;;;0.22;58.99;99891.61;123234;1105;104306;-80
2021/03/21 07:19:31;;;;;;;13.80;11.40;;;;;;;0.35;59.07;99882.08;123289;1105;104249;-79
2021/03/21 07:22:27;;;;;;;18.50;12.27;;;;;;;0.34;58.97;99881.22;123351;1105;104245;-78
2021/03/21 07:25:36;;;;;;;14.15;11.60;;;;;;;0.32;60.05;99880.31;123399;1105;104863;-86
2021/03/21 07:28:32;;;;;;;17.30;12.77;;;;;;;0.46;59.99;99872.56;123179;1106;104429;-79
2021/03/21 07:30:59;;;;;;;18.33;11.77;;;;;;;0.58;59.31;99858.66;123348;1105;104251;-81
2021/03/21 07:33:32;;;;;;;17.00;13.55;;;;;;;0.66;59.81;99864.81;123314;1104;104143;-78
2021/03/21 07:36:05;;;;;;;12.90;11.60;;;;;;;0.65;60.50;99853.47;123462;1105;104325;-78
2021/03/21 07:38:53;;;;;;;16.37;13.43;;;;;;;0.70;60.74;99853.48;123315;1105;104748;-81
2021/03/21 07:41:41;;;;;;;24.83;19.13;;;;;;;0.63;62.48;99852.57;123309;1105;104417;-85
2021/03/21 07:44:46;;;;;;;18.50;15.63;;;;;;;0.59;62.60;99844.70;123318;1105;104220;-81
2021/03/21 07:47:27;;;;;;;19.12;15.32;;;;;;;0.48;63.05;99841.99;123300;1105;104296;-80
2021/03/21 07:50:31;;;;;;;21.17;16.32;;;;;;;0.44;63.87;99822.78;123441;1105;104328;-82
2021/03/21 07:53:04;;;;;;;20.57;15.10;;;;;;;0.40;64.05;99822.74;123296;1105;105575;-79
2021/03/21 07:56:08;;;;;;;12.93;10.28;;;;;;;0.34;64.33;99823.59;123390;1105;105330;-79
2021/03/21 07:59:01;;;;;;;14.00;12.20;;;;;;;0.37;63.99;99820.11;123091;1109;104278;-79
2021/03/21 08:01:28;;;;;;;14.55;10.98;;;;;;;0.37;64.17;99815.74;123177;1109;104354;-79
2021/03/21 08:04:12;;;;;;;15.93;14.10;;;;;;;0.38;64.12;99816.64;123159;1109;104316;-79
2021/03/21 08:06:45;;;;;;;16.35;13.15;;;;;;;0.31;64.84;99821.83;123006;1109;104257;-80
2021/03/21 08:09:36;;;;;;;11.10;9.40;;;;;;;0.26;65.72;99820.05;123069;1109;104350;-80
2021/03/21 08:12:05;;;;;;;17.85;14.60;;;;;;;0.26;65.86;99820.92;123061;1109;104329;-79
2021/03/21 08:14:36;;;;;;;13.07;11.50;;;;;;;0.30;65.76;99822.69;123126;1109;104390;-78
2021/03/21 08:17:05;;;;;;;19.43;15.00;;;;;;;0.32;65.24;99822.69;123151;1109;104789;-80
2021/03/21 08:19:34;;;;;;;16.63;14.70;;;;;;;0.31;65.01;99823.58;123038;1109;104377;-79
2021/03/21 08:22:22;;;;;;;14.28;12.73;;;;;;;0.33;65.41;99822.73;123066;1109;104392;-80
2021/03/21 08:24:50;;;;;;;16.00;11.88;;;;;;;0.30;65.27;99811.34;122806;1112;104428;-78
2021/03/21 08:27:28;;;;;;;15.32;13.70;;;;;;;0.33;65.18;99807.02;122740;1111;104441;-78
2021/03/21 08:30:04;;;;;;;15.53;13.45;;;;;;;0.38;65.15;99812.27;122858;1112;104465;-82
2021/03/21 08:32:33;;;;;;;18.30;14.93;;;;;;;0.41;64.78;99809.65;122801;1112;104434;-82
2021/03/21 08:35:19;;;;;;;16.27;12.67;;;;;;;0.43;65.43;99812.30;122792;1112;104885;-79
2021/03/21 08:37:52;;;;;;;16.73;13.03;;;;;;;0.44;64.78;99803.55;123069;1109;104421;-77
2021/03/21 08:40:29;;;;;;;17.03;15.03;;;;;;;0.50;64.37;99804.45;122909;1109;104329;-78
2021/03/21 08:43:21;;;;;;;15.15;13.65;;;;;;;0.49;65.11;99807.97;123051;1109;104185;-79
2021/03/21 08:45:53;;;;;;;15.70;14.03;;;;;;;0.49;65.13;99797.48;123138;1109;104296;-79
2021/03/21 08:48:30;;;;;;;16.00;14.30;;;;;;;0.52;64.67;99795.73;123082;1109;105018;-78
2021/03/21 08:51:18;;;;;;;16.48;12.98;;;;;;;0.52;64.81;99795.73;123119;1109;104214;-81
2021/03/21 08:54:00;;;;;;;15.58;13.28;;;;;;;0.44;64.89;99796.59;123117;1108;104392;-78
2021/03/21 08:56:37;;;;;;;17.37;13.70;;;;;;;0.43;64.99;99794.83;123088;1109;104399;-78
2021/03/21 08:59:08;;;;;;;15.90;13.28;;;;;;;0.48;65.23;99789.59;123211;1108;104793;-79
2021/03/21 09:01:35;;;;;;;16.07;12.73;;;;;;;0.51;65.62;99787.02;123208;1109;104395;-79
2021/03/21 09:04:18;;;;;;;14.87;13.37;;;;;;;0.52;65.58;99777.40;123295;1109;104615;-80
2021/03/21 09:07:23;;;;;;;15.10;12.90;;;;;;;0.60;65.70;99778.30;122993;1112;104274;-79
2021/03/21 09:10:12;;;;;;;17.73;13.43;;;;;;;0.60;65.96;99771.33;123140;1109;104229;-79
2021/03/21 09:13:12;;;;;;;18.05;14.53;;;;;;;0.65;65.42;99769.61;122844;1109;104368;-83
2021/03/21 09:15:40;;;;;;;15.97;14.23;;;;;;;0.64;66.13;99767.86;122820;1109;104431;-79
2021/03/21 09:18:22;;;;;;;13.03;11.40;;;;;;;0.61;67.02;99780.06;123074;1108;104384;-78
2021/03/21 09:21:34;;;;;;;17.00;13.63;;;;;;;0.60;67.15;99770.44;123065;1109;105089;-78
2021/03/21 09:24:01;;;;;;;17.53;14.20;;;;;;;0.63;67.01;99773.09;123188;1105;104306;-80
2021/03/21 09:26:30;;;;;;;12.00;10.53;;;;;;;0.67;67.14;99769.61;123372;1105;104783;-79
2021/03/21 09:29:13;;;;;;;19.75;15.05;;;;;;;0.66;66.79;99765.23;123331;1106;104306;-80
2021/03/21 09:31:40;;;;;;;21.77;15.03;;;;;;;0.71;67.12;99759.99;123297;1105;104254;-80
2021/03/21 09:34:12;;;;;;;16.67;13.23;;;;;;;0.71;67.29;99765.23;123264;1106;104715;-79
2021/03/21 09:36:47;;;;;;;13.97;12.63;;;;;;;0.73;67.59;99761.75;123313;1105;104316;-79
2021/03/21 09:39:40;;;;;;;20.00;15.60;;;;;;;0.77;67.55;99767.89;123266;1105;104383;-79
2021/03/21 09:42:11;;;;;;;17.32;14.85;;;;;;;0.76;66.58;99771.38;123235;1105;104341;-78
2021/03/21 09:44:42;;;;;;;12.93;11.63;;;;;;;0.71;67.67;99768.75;123261;1105;104881;-81
2021/03/21 09:47:37;;;;;;;25.50;19.30;;;;;;;0.74;66.73;99771.38;123319;1105;104246;-78
2021/03/21 09:50:11;;;;;;;18.50;14.78;;;;;;;0.75;67.14;99757.41;123267;1105;104319;-80
2021/03/21 09:52:56;;;;;;;17.13;15.20;;;;;;;0.81;67.16;99759.16;123274;1105;104223;-79
2021/03/21 09:55:39;;;;;;;18.20;15.03;;;;;;;0.82;67.50;99764.41;123355;1105;104431;-80
2021/03/21 09:58:31;;;;;;;19.60;14.07;;;;;;;0.80;68.08;99745.19;123381;1105;105005;-82
2021/03/21 10:01:23;;;;;;;15.37;12.57;;;;;;;0.84;68.54;99761.81;123298;1106;104475;-78
2021/03/21 10:03:57;;;;;;;18.73;15.80;;;;;;;0.81;68.31;99746.95;123324;1105;104325;-80
2021/03/21 10:06:29;;;;;;;17.70;15.30;;;;;;;0.87;68.69;99753.05;123292;1105;104328;-79
2021/03/21 10:09:13;;;;;;;17.47;13.83;;;;;;;0.80;68.99;99739.95;123205;1105;104376;-78
2021/03/21 10:12:04;;;;;;;14.80;12.83;;;;;;;0.78;69.87;99733.81;123250;1106;104347;-81
2021/03/21 10:14:31;;;;;;;17.82;16.05;;;;;;;0.80;70.00;99745.19;123361;1105;104229;-80
2021/03/21 10:16:59;;;;;;;29.30;19.05;;;;;;;0.87;69.62;99743.46;123218;1105;104519;-78
2021/03/21 10:19:53;;;;;;;17.92;14.03;;;;;;;0.92;70.46;99736.48;123556;1105;104283;-78
2021/03/21 10:22:26;;;;;;;17.95;14.03;;;;;;;0.90;71.19;99743.46;123180;1105;104251;-81
2021/03/21 10:25:19;;;;;;;15.20;13.60;;;;;;;0.78;71.39;99744.30;123149;1105;104853;-77
2021/03/21 10:27:48;;;;;;;18.45;16.42;;;;;;;0.76;71.22;99735.58;123148;1105;104229;-78
2021/03/21 10:30:22;;;;;;;19.30;15.30;;;;;;;0.75;71.84;99738.20;123293;1105;104306;-78
2021/03/21 10:32:58;;;;;;;18.53;15.43;;;;;;;0.81;71.62;99735.57;123401;1105;104194;-80
2021/03/21 10:35:24;;;;;;;16.40;12.50;;;;;;;0.85;71.42;99732.08;123359;1105;104233;-79
2021/03/21 10:38:10;;;;;;;18.97;17.13;;;;;;;0.88;70.85;99733.84;123330;1105;105146;-77
2021/03/21 10:40:38;;;;;;;17.75;15.78;;;;;;;0.83;70.34;99726.84;123323;1106;104334;-78
2021/03/21 10:43:13;;;;;;;17.80;14.27;;;;;;;0.89;70.84;99730.35;123131;1105;104460;-79
2021/03/21 10:45:41;;;;;;;18.17;16.20;;;;;;;0.91;70.16;99726.86;123051;1105;104313;-79
2021/03/21 10:48:11;;;;;;;14.57;13.13;;;;;;;0.91;70.36;99713.76;123374;1106;104335;-77
2021/03/21 10:50:56;;;;;;;18.85;15.50;;;;;;;0.83;70.53;99713.73;123290;1105;104263;-81
2021/03/21 10:53:30;;;;;;;18.67;16.53;;;;;;;0.82;70.11;99721.60;123276;1106;104306;-78
2021/03/21 10:56:02;;;;;;;15.13;13.58;;;;;;;0.86;69.77;99720.73;123313;1105;104332;-84
2021/03/21 10:59:00;;;;;;;13.53;12.13;;;;;;;0.83;70.25;99712.88;123360;1105;104816;-78
2021/03/21 11:01:37;;;;;;;21.05;15.15;;;;;;;0.89;70.58;99714.62;123278;1105;104284;-77
2021/03/21 11:04:19;;;;;;;22.63;16.20;;;;;;;0.96;70.25;99706.78;123276;1105;104341;-80
2021/03/21 11:06:57;;;;;;;17.45;15.08;;;;;;;1.05;69.88;99692.78;123442;1105;104178;-77
2021/03/21 11:09:32;;;;;;;17.13;14.97;;;;;;;1.08;70.10;99695.44;123127;1105;104184;-79
2021/03/21 11:12:03;;;;;;;19.80;17.73;;;;;;;1.18;69.54;99693.68;123303;1105;104252;-81
2021/03/21 11:14:37;;;;;;;15.28;13.68;;;;;;;1.28;69.84;99691.92;123366;1106;104171;-78
2021/03/21 11:17:22;;;;;;;17.13;14.60;;;;;;;1.25;69.92;99686.69;123000;1108;104453;-80
2021/03/21 11:19:56;;;;;;;16.50;15.03;;;;;;;1.30;69.07;99683.18;122862;1109;104557;-77
2021/03/21 11:22:42;;;;;;;14.60;12.45;;;;;;;1.37;69.59;99684.05;123062;1108;104370;-79
2021/03/21 11:25:15;;;;;;;20.23;16.33;;;;;;;1.43;69.44;99681.44;123085;1109;104489;-78
2021/03/21 11:27:48;;;;;;;21.77;16.77;;;;;;;1.44;69.48;99669.17;122988;1108;104300;-79
2021/03/21 11:30:26;;;;;;;16.15;14.43;;;;;;;1.46;69.39;99662.20;123112;1109;104408;-81
2021/03/21 11:32:58;;;;;;;17.13;15.03;;;;;;;1.54;69.33;99670.06;123166;1109;106112;-79
2021/03/21 11:35:43;;;;;;;25.87;17.60;;;;;;;1.59;68.75;99668.31;122999;1108;104351;-78
2021/03/21 11:38:30;;;;;;;17.15;13.95;;;;;;;1.67;68.66;99662.16;123027;1109;104705;-78
2021/03/21 11:41:01;;;;;;;20.48;17.60;;;;;;;1.67;69.04;99672.65;122942;1109;104264;-82
2021/03/21 11:43:30;;;;;;;21.10;16.27;;;;;;;1.81;68.11;99661.24;122974;1109;104427;-79
2021/03/21 11:46:26;;;;;;;19.05;16.07;;;;;;;1.89;68.27;99667.34;122964;1109;105328;-77
2021/03/21 11:48:57;;;;;;;19.57;17.55;;;;;;;1.91;67.27;99665.60;123022;1109;104275;-80
2021/03/21 11:51:25;;;;;;;20.85;16.00;;;;;;;1.96;68.01;99660.31;122970;1108;104494;-78
2021/03/21 11:54:02;;;;;;;29.57;17.65;;;;;;;1.97;68.32;99660.34;122972;1109;104249;-78
2021/03/21 11:57:07;;;;;;;21.10;17.57;;;;;;;2.02;67.54;99659.45;122994;1105;104429;-78
2021/03/21 11:59:47;;;;;;;15.40;13.83;;;;;;;1.95;68.79;99651.58;122950;1105;104338;-82
2021/03/21 12:02:36;;;;;;;19.80;16.93;;;;;;;2.02;69.17;99646.32;123225;1105;104393;-85
2021/03/21 12:05:11;;;;;;;27.60;22.25;;;;;;;2.12;69.39;99645.38;123019;1105;104351;-80
2021/03/21 12:07:38;;;;;;;21.47;17.30;;;;;;;2.03;69.70;99638.43;123279;1105;104425;-78